Addison, Pennsylvania
Current Conditions -  °F | °C
As of 11:25 PM on Tuesday 25 Nov 2014 (Local Time) from K2G4 Reporting Station
Clear Clear  
Wind Chill: -1°   Ceiling: Unl
Heat Index: -1°   Visibility: 10mi
Dew Point: -1°   Wind: 3mph
Humidity: 100%   Direction: 40°NE
Pressure: 30.09"   Gusts: NA
Location:  39.75°N, 79.34°W
Report Text: K2G4 260425Z AUTO 04003KT 10SM CLR M01/M01 A3009 RMK AO1
Loading
Personal Weather Stations






























Interactive Weather Map New forecast layout! Learn more

10-Day Weather Forecast

Advertisements
Track Severe Weather on mobile